Главная страница
METAR-TAF:

METAR-TAF

Аэропорты :

Мераге, Иран

широта: 37-20-55N, долгота: 046-07-35E, высота над уровнем моря: 1340 м

Текущие метеонаблюдения

Эта сводка был подготовлена 43 минут назад, в 12:00 UTC
Ветер 10 Узел от юго-западный
Температура 5°C
Влажность 38%
Давление 1009 hPa
Видимость 10 км и более
Отдельные облака на высоте 3200 фута, мощно-кучевые.
небольшая облачность на высоте 3500 фута, Кучево-дождевые.
Отдельные облака на высоте 19000 фута

METAR: OITM 081200Z 22010KT 9999 SCT032TCU FEW035CB SCT190 05/M08 Q1009

Время: 16:13 (12:43 UTC)


TAF: отсутствует

Метеонаблюдения и прогнозы для более 4000 аэропортов (сводки METAR и TAF).

Имеющиеся станции представлены на карте желтыми и красными точками.

Чтобы увидеть название станции, наведите на нее мышь.

Затем щелкните, чтобы увидеть метеонаблюдения и метеопрогнозы.

Управление картой: чтобы увеличить масштаб, щелкните зеленые кнопки с черным крестиком; чтобы уменьшить масштаб, щелкните зеленую кнопку с тире; для просмотра соседних карт щелкайте зеленые стрелки.


METAR-TAF: